createdAt,value
2019-04-10T00:03:43.972Z,4.61
2019-04-10T00:08:50.488Z,4.55
2019-04-10T00:13:56.110Z,4.48
2019-04-10T00:19:02.361Z,4.40
2019-04-10T00:24:08.017Z,4.34
2019-04-10T00:29:14.138Z,4.25
2019-04-10T00:34:19.828Z,4.23
2019-04-10T00:39:26.487Z,4.20
2019-04-10T00:44:33.227Z,4.13
2019-04-10T00:49:38.402Z,4.02
2019-04-10T00:54:43.655Z,3.94
2019-04-10T00:59:48.827Z,3.88
2019-04-10T01:04:54.962Z,3.79
2019-04-10T01:10:02.093Z,3.71
2019-04-10T01:15:08.564Z,3.65
2019-04-10T01:20:15.533Z,3.56
2019-04-10T01:25:21.996Z,3.53
2019-04-10T01:30:28.530Z,3.48
2019-04-10T01:35:34.811Z,3.45
2019-04-10T01:40:41.368Z,3.40
2019-04-10T01:45:46.628Z,3.32
2019-04-10T01:50:53.105Z,3.27
2019-04-10T01:55:59.625Z,3.21
2019-04-10T02:01:17.021Z,3.09
2019-04-10T02:06:22.210Z,3.05
2019-04-10T02:11:28.075Z,2.99
2019-04-10T02:16:33.387Z,2.91
2019-04-10T02:21:38.827Z,2.83
2019-04-10T02:26:43.998Z,2.82
2019-04-10T02:31:50.745Z,2.78
2019-04-10T02:36:56.485Z,2.76
2019-04-10T02:42:02.881Z,2.63
2019-04-10T02:47:08.280Z,2.57
2019-04-10T02:52:14.757Z,2.50
2019-04-10T02:57:21.506Z,2.38
2019-04-10T03:02:28.827Z,2.48
2019-04-10T03:07:35.898Z,2.33
2019-04-10T03:12:41.269Z,2.18
2019-04-10T03:17:48.429Z,2.03
2019-04-10T03:22:53.678Z,1.99
2019-04-10T03:27:58.780Z,1.93
2019-04-10T03:33:31.173Z,2.00
2019-04-10T03:38:49.627Z,2.19
2019-04-10T03:43:43.753Z,2.11
2019-04-10T03:48:51.447Z,2.07
2019-04-10T03:53:56.768Z,2.04
2019-04-10T03:59:02.257Z,1.96
2019-04-10T04:04:07.489Z,1.79
2019-04-10T04:09:13.582Z,1.68
2019-04-10T04:14:20.076Z,1.56
2019-04-10T04:19:26.885Z,1.45
2019-04-10T04:24:32.160Z,1.39
2019-04-10T04:29:37.654Z,1.31
2019-04-10T04:34:43.314Z,1.12
2019-04-10T04:39:48.894Z,1.13
2019-04-10T04:44:54.901Z,1.11
2019-04-10T04:50:00.063Z,1.03
2019-04-10T04:55:05.974Z,0.97
2019-04-10T05:00:11.296Z,0.95
2019-04-10T05:05:16.531Z,0.92
2019-04-10T05:10:22.893Z,0.85
2019-04-10T05:15:29.033Z,0.76
2019-04-10T05:20:44.212Z,0.75
2019-04-10T05:25:41.602Z,0.78
2019-04-10T05:30:46.757Z,0.85
2019-04-10T05:35:52.877Z,0.91
2019-04-10T05:40:59.162Z,0.95
2019-04-10T05:46:05.624Z,1.05
2019-04-10T05:51:12.573Z,1.11
2019-04-10T05:56:19.014Z,1.18
2019-04-10T06:01:33.330Z,1.26
2019-04-10T06:06:32.606Z,1.40
2019-04-10T06:11:39.318Z,1.57
2019-04-10T06:16:45.095Z,1.67
2019-04-10T06:21:50.597Z,1.80
2019-04-10T06:26:56.221Z,1.95
2019-04-10T06:32:01.846Z,2.14
2019-04-10T06:37:08.166Z,2.24
2019-04-10T06:42:14.220Z,2.35
2019-04-10T06:47:20.254Z,2.46
2019-04-10T06:52:25.484Z,2.60
2019-04-10T06:57:31.357Z,2.73
2019-04-10T07:02:38.702Z,2.93
2019-04-10T07:07:51.373Z,3.10
2019-04-10T07:12:51.310Z,3.29
2019-04-10T07:17:56.632Z,3.41
2019-04-10T07:23:03.074Z,3.68
2019-04-10T07:28:09.733Z,3.93
2019-04-10T07:33:17.006Z,4.05
2019-04-10T07:38:22.758Z,4.34
2019-04-10T07:43:29.478Z,4.19
2019-04-10T07:48:35.593Z,4.28
2019-04-10T07:53:41.492Z,4.50
2019-04-10T07:58:48.194Z,4.74
2019-04-10T08:03:54.015Z,4.66
2019-04-10T08:09:01.225Z,4.95
2019-04-10T08:14:08.544Z,5.23
2019-04-10T08:19:14.585Z,5.38
2019-04-10T08:24:20.486Z,5.17
2019-04-10T08:29:26.082Z,5.44
2019-04-10T08:34:31.509Z,5.59
2019-04-10T08:39:42.947Z,5.61
2019-04-10T08:44:44.608Z,5.58
2019-04-10T08:49:51.276Z,6.03
2019-04-10T08:54:57.413Z,6.35
2019-04-10T09:00:02.888Z,6.57
2019-04-10T09:05:11.241Z,6.65
2019-04-10T09:10:16.943Z,7.14
2019-04-10T09:15:23.489Z,7.27
2019-04-10T09:20:29.047Z,7.56
2019-04-10T09:25:35.363Z,7.28
2019-04-10T09:30:41.131Z,7.33
2019-04-10T09:35:46.865Z,7.18
2019-04-10T09:40:53.214Z,7.36
2019-04-10T09:46:00.019Z,7.93
2019-04-10T09:51:06.038Z,8.22
2019-04-10T09:56:11.783Z,7.97
2019-04-10T10:01:17.930Z,7.42
2019-04-10T10:06:29.911Z,7.40
2019-04-10T10:11:30.760Z,7.40
2019-04-10T10:16:36.963Z,8.13
2019-04-10T10:21:42.819Z,8.35
2019-04-10T10:26:49.371Z,8.27
2019-04-10T10:31:55.097Z,7.96
2019-04-10T10:37:03.612Z,8.18
2019-04-10T10:42:09.591Z,8.06
2019-04-10T10:47:15.914Z,8.11
2019-04-10T10:52:21.548Z,8.28
2019-04-10T10:57:27.030Z,8.79
2019-04-10T11:02:33.581Z,8.94
2019-04-10T11:07:40.542Z,9.00
2019-04-10T11:12:46.612Z,8.72
2019-04-10T11:17:52.069Z,8.66
2019-04-10T11:22:57.715Z,8.46
2019-04-10T11:28:03.999Z,8.97
2019-04-10T11:33:10.941Z,9.50
2019-04-10T11:38:17.598Z,9.44
2019-04-10T11:43:24.866Z,9.37
2019-04-10T11:48:31.210Z,9.68
2019-04-10T11:53:42.415Z,9.79
2019-04-10T11:58:52.602Z,9.61
2019-04-10T12:03:56.152Z,9.92
2019-04-10T12:09:37.719Z,9.39
2019-04-10T12:14:11.120Z,9.46
2019-04-10T12:19:17.341Z,9.64
2019-04-10T12:24:23.794Z,9.83
2019-04-10T12:29:29.288Z,10.10
2019-04-10T12:34:36.109Z,10.44
2019-04-10T12:39:41.537Z,10.80
2019-04-10T12:44:47.191Z,11.13
2019-04-10T12:49:52.452Z,11.26
2019-04-10T12:54:57.705Z,10.99
2019-04-10T13:00:04.881Z,11.12
2019-04-10T13:05:11.314Z,11.06
2019-04-10T13:10:18.343Z,11.08
2019-04-10T13:15:24.022Z,11.43
2019-04-10T13:20:29.853Z,11.45
2019-04-10T13:25:36.725Z,11.68
2019-04-10T13:30:48.845Z,11.69
2019-04-10T13:35:49.157Z,12.19
2019-04-10T13:40:54.552Z,12.24
2019-04-10T13:46:00.543Z,12.20
2019-04-10T13:51:07.523Z,12.52
2019-04-10T13:56:12.931Z,12.07
2019-04-10T14:01:25.270Z,12.36
2019-04-10T14:06:31.958Z,12.52
2019-04-10T14:11:37.549Z,12.60
2019-04-10T14:16:42.772Z,12.65
2019-04-10T14:21:49.168Z,12.52
2019-04-10T14:27:03.492Z,12.35
2019-04-10T14:32:11.318Z,12.53
2019-04-10T14:37:16.915Z,13.07
2019-04-10T14:42:22.387Z,12.87
2019-04-10T14:47:27.971Z,12.82
2019-04-10T14:52:33.286Z,12.78
2019-04-10T14:57:39.171Z,13.10
2019-04-10T15:02:44.555Z,13.16
2019-04-10T15:07:49.912Z,13.22
2019-04-10T15:13:06.959Z,13.30
2019-04-10T15:18:04.607Z,13.28
2019-04-10T15:23:10.501Z,12.80
2019-04-10T15:28:16.099Z,12.83
2019-04-10T15:33:22.455Z,13.30
2019-04-10T15:38:28.504Z,13.13
2019-04-10T15:43:35.788Z,12.71
2019-04-10T15:48:41.921Z,12.26
2019-04-10T15:53:47.591Z,12.65
2019-04-10T15:58:53.284Z,12.73
2019-04-10T16:03:58.985Z,12.98
2019-04-10T16:09:07.179Z,12.99
2019-04-10T16:14:20.917Z,12.76
2019-04-10T16:19:51.816Z,12.65
2019-04-10T16:24:59.567Z,12.26
2019-04-10T16:30:08.192Z,11.59
2019-04-10T16:35:13.879Z,11.51
2019-04-10T16:40:20.755Z,11.11
2019-04-10T16:45:26.515Z,11.28
2019-04-10T16:50:32.215Z,10.93
2019-04-10T16:55:37.671Z,10.90
2019-04-10T17:00:43.083Z,10.95
2019-04-10T17:05:48.686Z,10.93
2019-04-10T17:10:54.604Z,10.88
2019-04-10T17:16:02.022Z,10.59
2019-04-10T17:21:07.543Z,10.66
2019-04-10T17:26:13.031Z,10.41
2019-04-10T17:31:18.734Z,10.17
2019-04-10T17:36:25.084Z,9.93
2019-04-10T17:41:31.522Z,9.66
2019-04-10T17:46:37.383Z,9.51
2019-04-10T17:51:43.910Z,9.09
2019-04-10T17:56:50.689Z,8.65
2019-04-10T18:01:59.322Z,8.10
2019-04-10T18:07:05.897Z,7.79
2019-04-10T18:12:14.251Z,7.53
2019-04-10T18:17:19.642Z,7.37
2019-04-10T18:22:26.856Z,7.22
2019-04-10T18:27:32.967Z,7.01
2019-04-10T18:32:38.130Z,6.82
2019-04-10T18:37:44.729Z,6.68
2019-04-10T18:42:50.157Z,6.53
2019-04-10T18:47:56.469Z,6.42
2019-04-10T18:53:02.086Z,6.37
2019-04-10T18:58:12.108Z,6.28
2019-04-10T19:03:30.417Z,6.13
2019-04-10T19:08:36.023Z,6.10
2019-04-10T19:13:41.194Z,5.98
2019-04-10T19:18:46.518Z,5.89
2019-04-10T19:23:51.691Z,5.78
2019-04-10T19:28:57.231Z,5.72
2019-04-10T19:34:03.244Z,5.48
2019-04-10T19:39:09.826Z,5.28
2019-04-10T19:44:16.963Z,5.11
2019-04-10T19:49:24.419Z,4.99
2019-04-10T19:54:30.410Z,4.91
2019-04-10T19:59:37.785Z,4.73
2019-04-10T20:04:43.718Z,4.59
2019-04-10T20:09:49.004Z,4.53
2019-04-10T20:14:55.782Z,4.44
2019-04-10T20:20:00.976Z,4.43
2019-04-10T20:25:06.283Z,4.35
2019-04-10T20:30:12.063Z,4.22
2019-04-10T20:35:18.272Z,4.16
2019-04-10T20:40:23.770Z,4.06
2019-04-10T20:45:29.785Z,4.01
2019-04-10T20:50:37.164Z,3.95
2019-04-10T20:55:42.337Z,3.97
2019-04-10T21:00:47.578Z,3.86
2019-04-10T21:05:52.878Z,3.79
2019-04-10T21:10:59.245Z,3.75
2019-04-10T21:16:04.474Z,3.68
2019-04-10T21:21:10.298Z,3.60
2019-04-10T21:26:16.392Z,3.59
2019-04-10T21:31:48.238Z,3.51
2019-04-10T21:36:53.581Z,3.41
2019-04-10T21:42:11.112Z,3.32
2019-04-10T21:47:06.208Z,3.30
2019-04-10T21:52:11.359Z,3.30
2019-04-10T21:57:18.186Z,3.21
2019-04-10T22:02:23.874Z,3.18
2019-04-10T22:07:45.532Z,3.18
2019-04-10T22:12:52.575Z,3.18
2019-04-10T22:17:58.998Z,3.10
2019-04-10T22:23:04.243Z,3.04
2019-04-10T22:28:09.395Z,3.12
2019-04-10T22:33:14.605Z,3.09
2019-04-10T22:38:19.761Z,3.03
2019-04-10T22:43:25.294Z,3.05
2019-04-10T22:48:30.850Z,2.96
2019-04-10T22:53:37.387Z,2.95
2019-04-10T22:58:44.095Z,2.87
2019-04-10T23:03:49.480Z,2.81
2019-04-10T23:08:55.826Z,2.89
2019-04-10T23:14:01.243Z,2.77
2019-04-10T23:19:06.438Z,2.64
2019-04-10T23:24:13.677Z,2.62
2019-04-10T23:29:20.063Z,2.54
2019-04-10T23:34:25.188Z,2.51
2019-04-10T23:39:30.399Z,2.45
2019-04-10T23:44:35.973Z,2.33
2019-04-10T23:49:41.659Z,2.33
2019-04-10T23:54:46.897Z,2.28
2019-04-10T23:59:53.140Z,2.30
